Accueil
METAR-TAF:

METAR-TAF

Aéroports :

Granges, Suisse

Aéroport de Granges

latitude: 47-10-53N, longitude: 007-24-59E, altitude: 430 m

Observation

Le bulletin a été fait il y a 29 minutes, à 16:20 UTC
Vent 3 kt de direction variable
Température 26°C
Humidité 48%
Pression 1018 hPa
Visibilité 10 km ou plus

METAR: LSZG 221620Z AUTO VRB03KT 9999 NCD 26/14 Q1018

Heure: 18:49 (16:49 UTC)

Prévision

Le bulletin a été fait il y a 2 heures et 24 minutes, à 14:25 UTC
Prévision valable du 22 à 15 UTC au 22 à 24 UTC
Vent 3 kt de direction variable
Visibilité 10 km ou plus
pas de nuages en-dessous de 1500 mètres et pas de cumulonimbus.
Temporairement
du 22 à 15 UTC au 22 à 18 UTC
Visibilité 10 km ou plus
Quelques nuages à une hauteur de 5000 ft

TAF: LSZG 221425Z 2215/2224 VRB03KT CAVOK TEMPO 2215/2218 9999 FEW050

Observations et prévisions météorologiques de plus de 4000 aéroports (messages METAR et TAF).

Les stations disponibles sont représentées par des disques jaunes et rouges sur la carte.

Passer la souris dessus pour voir le nom de la station.

Cliquer dessus pour voir les observations et prévisions météorologiques.

Pour changer de carte: cliquez sur les boutons verts avec une croix noire pour zoomer, sur le bouton vert avec un tiret pour effectuer un zoom arrière, ou sur les flèches vertes pour les cartes adjacentes.


METAR-TAF: